Portada
METAR-TAF:

METAR-TAF

Aeroports :

Valley, Gal·les

latitud: 53-15N, longitud: 004-32W, altitud: 1 m

Observació

L'informe es va fer fa 1 hora i 21 minuts, a les 22:50 UTC
Vent 12 kt del Sud-Oest
Temperatura 7°C
Humitat 66%
Pressió 1011 hPa
Visibilitat 10 km o més

METAR: EGOV 272250Z AUTO 23012KT 9999 NCD 07/01 Q1011

Hora: 00:11 (00:11 UTC)

Pronòstic

L'informe es va fer fa 7 hores i 49 minuts, a les 16:22 UTC
Pronòstic vàlid del 27 a les 18 UTC al 27 a les 21 UTC
Vent 10 kt del Oest
Visibilitat 10 km o més
Escasses núvols a una alçada de 2800 ft

TAF: EGOV 271622Z 2718/2721 27010KT 9999 FEW028

Observacions i pronòstics meteorològics de més de 4000 aeroports (METAR i TAF).

Les estacions disponibles són els punts grocs i vermells al mapa.

Posi el ratolí al punt desitjat per veure el nom de l'estació.

Feu clic per veure les observacions i els pronòstics meteorològics.

Per canviar el mapa: feu clic els botons verds amb una creu de color negre per apropar; al botó verd amb un guió per allunyar la imatge; o en les fletxes verdes per a mapes adjacents.


METAR-TAF: